Time;durP1;ratioP1;P1;durP2;ratioP2;P2;SDS_P1;SDS_P2;PMS_P1;PMS_P2;Temp;Humidity;BMP_temperature;BMP_pressure;BME280_temperature;BME280_humidity;BME280_pressure;Samples;Min_cycle;Max_cycle;Signal;HPM_P1;HPM_P2
2022/11/02 00:00:53;;;;;;;7.83;1.20;;;;;;;;;;4914669;29;20652;-63
2022/11/02 00:03:20;;;;;;;1.37;1.17;;;;;;;;;;4913794;29;20208;-63
2022/11/02 00:05:47;;;;;;;1.57;1.47;;;;;;;;;;4913957;29;20211;-63
2022/11/02 00:08:14;;;;;;;1.47;1.47;;;;;;;;;;4912238;29;20213;-63
2022/11/02 00:10:41;;;;;;;2.97;1.00;;;;;;;;;;4914410;29;20228;-62
2022/11/02 00:13:09;;;;;;;6.03;1.50;;;;;;;;;;4914581;29;20219;-62
2022/11/02 00:15:37;;;;;;;1.27;1.17;;;;;;;;;;4914356;29;20212;-62
2022/11/02 00:18:05;;;;;;;1.17;1.17;;;;;;;;;;4914219;29;20219;-62
2022/11/02 00:20:32;;;;;;;2.97;1.60;;;;;;;;;;4913462;29;20209;-63
2022/11/02 00:23:01;;;;;;;1.93;1.20;;;;;;;;;;4914242;29;20231;-62
2022/11/02 00:25:28;;;;;;;1.43;1.33;;;;;;;;;;4914129;29;20240;-62
2022/11/02 00:27:56;;;;;;;1.47;1.10;;;;;;;;;;4913982;29;20224;-62
2022/11/02 00:30:24;;;;;;;3.93;1.27;;;;;;;;;;4900815;29;20216;-62
2022/11/02 00:32:51;;;;;;;2.00;1.30;;;;;;;;;;4914043;29;20208;-62
2022/11/02 00:35:18;;;;;;;1.57;1.20;;;;;;;;;;4914059;29;20216;-63
2022/11/02 00:37:45;;;;;;;2.93;1.57;;;;;;;;;;4913872;29;20223;-63
2022/11/02 00:40:13;;;;;;;0.97;0.97;;;;;;;;;;4913177;29;20216;-62
2022/11/02 00:42:40;;;;;;;2.33;1.40;;;;;;;;;;4913727;29;20208;-62
2022/11/02 00:45:08;;;;;;;6.97;1.83;;;;;;;;;;4913521;29;20235;-62
2022/11/02 00:47:36;;;;;;;3.27;1.27;;;;;;;;;;4913682;29;20232;-62
2022/11/02 00:50:04;;;;;;;1.37;1.20;;;;;;;;;;4912240;29;20550;-63
2022/11/02 00:52:31;;;;;;;1.27;1.23;;;;;;;;;;4913484;29;20299;-62
2022/11/02 00:54:58;;;;;;;1.47;1.37;;;;;;;;;;4912820;29;20307;-62
2022/11/02 00:57:25;;;;;;;2.80;1.30;;;;;;;;;;4912763;29;20240;-63
2022/11/02 00:59:52;;;;;;;8.17;1.80;;;;;;;;;;4913354;29;20587;-62
2022/11/02 01:02:19;;;;;;;3.33;1.57;;;;;;;;;;4911973;29;20239;-62
2022/11/02 01:04:47;;;;;;;3.33;1.37;;;;;;;;;;4902371;29;20208;-63
2022/11/02 01:07:14;;;;;;;1.13;1.10;;;;;;;;;;4908363;29;20228;-62
2022/11/02 01:09:42;;;;;;;3.77;1.50;;;;;;;;;;4903570;29;21010;-62
2022/11/02 01:12:09;;;;;;;5.07;1.53;;;;;;;;;;4911416;29;20255;-62
2022/11/02 01:14:36;;;;;;;4.73;1.23;;;;;;;;;;4913053;29;20227;-63
2022/11/02 01:17:03;;;;;;;4.47;1.17;;;;;;;;;;4905601;29;20209;-62
2022/11/02 01:19:30;;;;;;;1.53;1.43;;;;;;;;;;4905542;29;20208;-63
2022/11/02 01:21:59;;;;;;;2.43;1.40;;;;;;;;;;4912553;29;20209;-62
2022/11/02 01:24:26;;;;;;;1.93;1.17;;;;;;;;;;4911859;29;20220;-62
2022/11/02 01:26:53;;;;;;;1.07;1.07;;;;;;;;;;4912850;29;20233;-62
2022/11/02 01:29:20;;;;;;;1.63;1.30;;;;;;;;;;4912822;29;20205;-62
2022/11/02 01:31:48;;;;;;;1.07;1.07;;;;;;;;;;4912414;29;20212;-62
2022/11/02 01:34:15;;;;;;;2.23;1.17;;;;;;;;;;4912768;29;20228;-62
2022/11/02 01:36:44;;;;;;;2.00;1.53;;;;;;;;;;4912139;29;20205;-62
2022/11/02 01:39:13;;;;;;;4.27;1.33;;;;;;;;;;4911052;29;20216;-63
2022/11/02 01:41:40;;;;;;;3.03;1.33;;;;;;;;;;4910825;29;20216;-63
2022/11/02 01:44:26;;;;;;;1.50;1.07;;;;;;;;;;4911507;29;20201;-62
2022/11/02 01:46:55;;;;;;;2.73;1.40;;;;;;;;;;4910370;29;20288;-63
2022/11/02 01:49:22;;;;;;;1.63;1.53;;;;;;;;;;4907973;29;20612;-64
2022/11/02 01:51:52;;;;;;;2.80;1.30;;;;;;;;;;4912046;29;20219;-63
2022/11/02 01:54:22;;;;;;;3.50;1.10;;;;;;;;;;4910915;29;20235;-64
2022/11/02 01:56:51;;;;;;;3.70;1.10;;;;;;;;;;4910330;29;20232;-63
2022/11/02 01:59:22;;;;;;;1.10;1.00;;;;;;;;;;4908115;29;20209;-63
2022/11/02 02:01:49;;;;;;;1.80;1.10;;;;;;;;;;4910450;29;20205;-63
2022/11/02 02:04:17;;;;;;;5.03;1.30;;;;;;;;;;4910301;29;20204;-63
2022/11/02 02:06:44;;;;;;;3.13;1.43;;;;;;;;;;4909519;29;20247;-64
2022/11/02 02:09:13;;;;;;;2.30;1.73;;;;;;;;;;4911122;29;20583;-64
2022/11/02 02:11:42;;;;;;;4.87;1.40;;;;;;;;;;4911040;29;20805;-63
2022/11/02 02:14:10;;;;;;;2.87;1.60;;;;;;;;;;4910890;29;20208;-63
2022/11/02 02:16:46;;;;;;;2.40;1.27;;;;;;;;;;4907917;29;20208;-63
2022/11/02 02:19:19;;;;;;;3.93;1.13;;;;;;;;;;4907408;29;20208;-63
2022/11/02 02:21:53;;;;;;;1.63;1.53;;;;;;;;;;4911121;29;20215;-63
2022/11/02 02:24:28;;;;;;;1.57;1.47;;;;;;;;;;4909566;29;20205;-64
2022/11/02 02:27:06;;;;;;;3.47;1.50;;;;;;;;;;4909925;29;20224;-64
2022/11/02 02:29:39;;;;;;;6.50;1.70;;;;;;;;;;4910415;29;20313;-64
2022/11/02 02:32:08;;;;;;;2.87;1.80;;;;;;;;;;4905766;29;20212;-63
2022/11/02 02:34:38;;;;;;;4.83;1.40;;;;;;;;;;4909138;29;20220;-63
2022/11/02 02:37:06;;;;;;;1.10;1.10;;;;;;;;;;4908942;29;20213;-64
2022/11/02 02:39:37;;;;;;;2.60;1.50;;;;;;;;;;4910388;29;20295;-63
2022/11/02 02:42:08;;;;;;;4.00;1.90;;;;;;;;;;4909950;29;20219;-63
2022/11/02 02:44:37;;;;;;;5.13;1.60;;;;;;;;;;4910403;29;20642;-63
2022/11/02 02:47:05;;;;;;;2.17;1.20;;;;;;;;;;4909053;29;20224;-63
2022/11/02 02:49:35;;;;;;;8.13;1.60;;;;;;;;;;4910424;29;20219;-63
2022/11/02 02:52:03;;;;;;;1.40;1.30;;;;;;;;;;4910538;29;20212;-63
2022/11/02 02:54:32;;;;;;;4.07;1.80;;;;;;;;;;4911242;29;20236;-63
2022/11/02 02:57:01;;;;;;;2.97;2.00;;;;;;;;;;4910877;29;20243;-63
2022/11/02 02:59:30;;;;;;;1.53;1.53;;;;;;;;;;4911961;29;20216;-63
2022/11/02 03:01:58;;;;;;;3.80;1.63;;;;;;;;;;4911218;29;20698;-63
2022/11/02 03:04:26;;;;;;;3.40;1.40;;;;;;;;;;4911244;29;20216;-63
2022/11/02 03:06:54;;;;;;;4.43;1.63;;;;;;;;;;4910573;29;20212;-63
2022/11/02 03:09:27;;;;;;;3.30;2.10;;;;;;;;;;4910742;29;20216;-63
2022/11/02 03:12:00;;;;;;;4.83;2.27;;;;;;;;;;4910783;29;20208;-63
2022/11/02 03:14:33;;;;;;;4.27;1.60;;;;;;;;;;4913851;29;20204;-63
2022/11/02 03:17:15;;;;;;;3.33;1.70;;;;;;;;;;4911776;29;20295;-63
2022/11/02 03:19:45;;;;;;;6.93;1.83;;;;;;;;;;4912428;29;20295;-63
2022/11/02 03:22:18;;;;;;;2.30;2.10;;;;;;;;;;4913151;29;20208;-63
2022/11/02 03:24:49;;;;;;;1.73;1.60;;;;;;;;;;4915162;29;20268;-65
2022/11/02 03:27:19;;;;;;;2.90;2.17;;;;;;;;;;4914317;29;20346;-63
2022/11/02 03:29:52;;;;;;;5.20;1.73;;;;;;;;;;4913434;29;20215;-60
2022/11/02 03:32:22;;;;;;;2.77;2.30;;;;;;;;;;4913941;29;20244;-61
2022/11/02 03:34:53;;;;;;;2.57;1.90;;;;;;;;;;4913781;29;20676;-61
2022/11/02 03:37:30;;;;;;;3.40;1.80;;;;;;;;;;4912623;29;20204;-64
2022/11/02 03:39:59;;;;;;;4.73;2.43;;;;;;;;;;4913882;29;20224;-64
2022/11/02 03:42:27;;;;;;;1.93;1.80;;;;;;;;;;4913194;29;20216;-63
2022/11/02 03:44:57;;;;;;;1.93;1.83;;;;;;;;;;4913883;29;20208;-63
2022/11/02 03:47:29;;;;;;;1.93;1.83;;;;;;;;;;4914530;29;20216;-63
2022/11/02 03:49:57;;;;;;;1.83;1.73;;;;;;;;;;4913941;29;20204;-64
2022/11/02 03:52:28;;;;;;;4.00;1.57;;;;;;;;;;4912234;29;20209;-64
2022/11/02 03:55:00;;;;;;;1.33;1.23;;;;;;;;;;4912132;29;20233;-63
2022/11/02 03:57:29;;;;;;;3.70;1.87;;;;;;;;;;4911577;29;20246;-63
2022/11/02 04:00:06;;;;;;;3.90;1.53;;;;;;;;;;4912258;29;20215;-63
2022/11/02 04:02:36;;;;;;;6.00;1.97;;;;;;;;;;4912262;29;20303;-63
2022/11/02 04:05:07;;;;;;;4.07;1.20;;;;;;;;;;4912772;29;20698;-63
2022/11/02 04:10:16;;;;;;;3.50;1.20;;;;;;;;;;4911756;29;20212;-63
2022/11/02 04:15:28;;;;;;;1.67;1.20;;;;;;;;;;4913013;29;20207;-64
2022/11/02 04:20:41;;;;;;;4.17;1.30;;;;;;;;;;4913567;29;20846;-63
2022/11/02 04:25:53;;;;;;;5.50;1.27;;;;;;;;;;4912744;29;20211;-63
2022/11/02 04:28:20;;;;;;;5.63;1.43;;;;;;;;;;4912099;29;20870;-64
2022/11/02 04:30:47;;;;;;;1.70;1.10;;;;;;;;;;4911650;29;20690;-64
2022/11/02 04:33:34;;;;;;;2.57;1.10;;;;;;;;;;4912245;29;20215;-63
2022/11/02 04:36:02;;;;;;;1.10;1.00;;;;;;;;;;4911115;29;20205;-64
2022/11/02 04:38:40;;;;;;;1.53;0.70;;;;;;;;;;4911281;29;20217;-64
2022/11/02 04:43:53;;;;;;;0.70;0.70;;;;;;;;;;4911946;29;20328;-64
2022/11/02 04:46:20;;;;;;;2.83;1.13;;;;;;;;;;4910767;29;20212;-64
2022/11/02 04:48:49;;;;;;;3.70;1.10;;;;;;;;;;4910789;29;20236;-64
2022/11/02 04:51:16;;;;;;;1.67;1.03;;;;;;;;;;4908028;29;20215;-64
2022/11/02 04:53:43;;;;;;;1.30;1.30;;;;;;;;;;4910517;29;20244;-64
2022/11/02 04:56:10;;;;;;;2.53;1.10;;;;;;;;;;4911365;29;20572;-64
2022/11/02 04:58:37;;;;;;;0.80;0.80;;;;;;;;;;4911140;29;20209;-63
2022/11/02 05:01:05;;;;;;;3.43;0.93;;;;;;;;;;4910176;29;20211;-64
2022/11/02 05:03:32;;;;;;;6.07;0.97;;;;;;;;;;4909991;29;20303;-63
2022/11/02 05:06:01;;;;;;;1.30;0.80;;;;;;;;;;4909840;29;20456;-64
2022/11/02 05:08:28;;;;;;;2.27;1.23;;;;;;;;;;4910167;29;20244;-63
2022/11/02 05:10:55;;;;;;;2.87;0.93;;;;;;;;;;4909772;29;20504;-64
2022/11/02 05:13:22;;;;;;;3.77;1.00;;;;;;;;;;4909296;29;20212;-63
2022/11/02 05:15:49;;;;;;;1.00;0.90;;;;;;;;;;4911392;29;20201;-63
2022/11/02 05:18:16;;;;;;;0.90;0.90;;;;;;;;;;4906959;29;20223;-63
2022/11/02 05:20:44;;;;;;;3.63;1.00;;;;;;;;;;4910891;29;20470;-63
2022/11/02 05:23:12;;;;;;;2.10;0.90;;;;;;;;;;4911434;29;20208;-64
2022/11/02 05:25:39;;;;;;;2.03;0.83;;;;;;;;;;4911712;29;20217;-63
2022/11/02 05:28:06;;;;;;;0.77;0.77;;;;;;;;;;4910943;29;20708;-63
2022/11/02 05:30:33;;;;;;;2.63;0.80;;;;;;;;;;4909202;29;20570;-63
2022/11/02 05:33:01;;;;;;;1.70;0.67;;;;;;;;;;4911547;29;20683;-64
2022/11/02 05:35:28;;;;;;;4.37;0.80;;;;;;;;;;4910654;29;20205;-62
2022/11/02 05:37:55;;;;;;;1.00;1.00;;;;;;;;;;4911801;29;20212;-62
2022/11/02 05:40:26;;;;;;;2.23;0.80;;;;;;;;;;4911914;29;20223;-64
2022/11/02 05:42:59;;;;;;;4.03;0.83;;;;;;;;;;4911278;29;20219;-63
2022/11/02 05:45:26;;;;;;;0.97;0.87;;;;;;;;;;4910567;29;20649;-63
2022/11/02 05:47:53;;;;;;;3.10;0.73;;;;;;;;;;4911286;29;20224;-63
2022/11/02 05:50:20;;;;;;;0.70;0.70;;;;;;;;;;4910141;29;20219;-63
2022/11/02 05:52:47;;;;;;;3.20;1.10;;;;;;;;;;4911475;29;20687;-63
2022/11/02 05:55:14;;;;;;;0.77;0.60;;;;;;;;;;4911040;29;20224;-63
2022/11/02 05:57:43;;;;;;;0.77;0.77;;;;;;;;;;4907543;29;20732;-63
2022/11/02 06:00:10;;;;;;;1.90;0.80;;;;;;;;;;4911077;29;20212;-63
2022/11/02 06:02:38;;;;;;;1.23;1.03;;;;;;;;;;4909813;29;20287;-63
2022/11/02 06:05:05;;;;;;;2.07;0.97;;;;;;;;;;4910223;29;20205;-64
2022/11/02 06:07:32;;;;;;;3.70;0.60;;;;;;;;;;4911612;29;20715;-64
2022/11/02 06:09:59;;;;;;;3.43;0.70;;;;;;;;;;4908397;29;20212;-63
2022/11/02 06:12:26;;;;;;;2.47;1.17;;;;;;;;;;4909402;29;20208;-63
2022/11/02 06:14:55;;;;;;;1.53;0.73;;;;;;;;;;4906781;29;20204;-62
2022/11/02 06:17:22;;;;;;;0.93;0.93;;;;;;;;;;4910525;29;20213;-62
2022/11/02 06:19:49;;;;;;;0.97;0.80;;;;;;;;;;4911546;29;20211;-62
2022/11/02 06:22:16;;;;;;;0.40;0.40;;;;;;;;;;4909319;29;20219;-62
2022/11/02 06:24:43;;;;;;;0.77;0.67;;;;;;;;;;4902374;29;20682;-62
2022/11/02 06:27:10;;;;;;;3.00;0.80;;;;;;;;;;4907876;29;20217;-62
2022/11/02 06:29:37;;;;;;;5.00;0.87;;;;;;;;;;4910554;29;20228;-62
2022/11/02 06:32:06;;;;;;;0.83;0.63;;;;;;;;;;4901081;29;20229;-61
2022/11/02 06:34:33;;;;;;;3.20;0.80;;;;;;;;;;4910994;29;20221;-62
2022/11/02 06:37:00;;;;;;;3.43;0.80;;;;;;;;;;4911484;29;20208;-63
2022/11/02 06:39:27;;;;;;;1.37;0.60;;;;;;;;;;4911326;29;20212;-63
2022/11/02 06:41:54;;;;;;;0.83;0.70;;;;;;;;;;4911603;29;21018;-62
2022/11/02 06:44:21;;;;;;;2.57;0.90;;;;;;;;;;4911855;29;20216;-62
2022/11/02 06:46:48;;;;;;;2.33;0.90;;;;;;;;;;4911251;29;20670;-63
2022/11/02 06:49:16;;;;;;;2.87;0.80;;;;;;;;;;4911631;29;20585;-64
2022/11/02 06:51:43;;;;;;;1.87;0.63;;;;;;;;;;4911895;29;20220;-63
2022/11/02 06:54:11;;;;;;;4.07;1.00;;;;;;;;;;4911573;29;20247;-63
2022/11/02 06:56:58;;;;;;;1.60;0.80;;;;;;;;;;4911485;29;20256;-63
2022/11/02 06:59:25;;;;;;;2.03;0.73;;;;;;;;;;4911646;29;20209;-63
2022/11/02 07:01:53;;;;;;;3.03;1.00;;;;;;;;;;4911262;29;20212;-63
2022/11/02 07:04:21;;;;;;;0.90;0.57;;;;;;;;;;4911209;29;20223;-63
2022/11/02 07:06:48;;;;;;;1.13;0.60;;;;;;;;;;4911435;29;20243;-63
2022/11/02 07:09:15;;;;;;;3.67;0.67;;;;;;;;;;4911119;29;20623;-64
2022/11/02 07:11:46;;;;;;;3.67;0.67;;;;;;;;;;4910670;29;20211;-63
2022/11/02 07:14:13;;;;;;;1.23;1.00;;;;;;;;;;4911462;29;20208;-62
2022/11/02 07:16:40;;;;;;;4.47;1.03;;;;;;;;;;4911776;29;20216;-62
2022/11/02 07:19:07;;;;;;;1.43;0.70;;;;;;;;;;4905336;29;20211;-62
2022/11/02 07:21:36;;;;;;;3.47;0.80;;;;;;;;;;4892943;29;20223;-62
2022/11/02 07:24:03;;;;;;;2.10;0.90;;;;;;;;;;4897159;29;20672;-62
2022/11/02 07:26:30;;;;;;;2.47;0.50;;;;;;;;;;4903178;29;20205;-63
2022/11/02 07:28:57;;;;;;;4.37;1.10;;;;;;;;;;4911085;29;20246;-62
2022/11/02 07:31:24;;;;;;;2.67;0.53;;;;;;;;;;4911443;29;20227;-63
2022/11/02 07:33:51;;;;;;;1.13;0.63;;;;;;;;;;4911277;29;20227;-63
2022/11/02 07:36:18;;;;;;;2.77;0.70;;;;;;;;;;4910873;29;20223;-63
2022/11/02 07:38:46;;;;;;;1.30;0.40;;;;;;;;;;4911229;29;20672;-63
2022/11/02 07:41:13;;;;;;;0.53;0.40;;;;;;;;;;4910891;29;20216;-62
2022/11/02 07:43:41;;;;;;;1.40;0.70;;;;;;;;;;4893316;29;20217;-62
2022/11/02 07:46:08;;;;;;;2.50;0.60;;;;;;;;;;4892515;29;20219;-61
2022/11/02 07:48:35;;;;;;;1.50;0.43;;;;;;;;;;4892324;29;20731;-62
2022/11/02 07:51:02;;;;;;;2.10;0.60;;;;;;;;;;4892543;29;20224;-61
2022/11/02 07:53:29;;;;;;;1.77;0.70;;;;;;;;;;4892027;29;20213;-62
2022/11/02 07:56:00;;;;;;;0.97;0.53;;;;;;;;;;4891950;29;20210;-62
2022/11/02 07:58:27;;;;;;;1.23;0.87;;;;;;;;;;4892225;29;20237;-62
2022/11/02 08:00:54;;;;;;;0.97;0.60;;;;;;;;;;4907138;29;20221;-62
2022/11/02 08:03:21;;;;;;;1.00;1.00;;;;;;;;;;4914356;29;20224;-63
2022/11/02 08:05:48;;;;;;;1.60;0.70;;;;;;;;;;4914514;29;20629;-62
2022/11/02 08:08:16;;;;;;;4.00;1.03;;;;;;;;;;4914115;29;20259;-62
2022/11/02 08:10:44;;;;;;;0.70;0.67;;;;;;;;;;4914548;29;20307;-62
2022/11/02 08:13:14;;;;;;;3.73;0.50;;;;;;;;;;4914226;29;20683;-62
2022/11/02 08:15:41;;;;;;;3.00;0.97;;;;;;;;;;4914336;29;20590;-62
2022/11/02 08:18:12;;;;;;;2.77;1.20;;;;;;;;;;4914234;29;20578;-62
2022/11/02 08:20:39;;;;;;;4.37;0.77;;;;;;;;;;4914410;29;20883;-62
2022/11/02 08:23:07;;;;;;;4.60;1.00;;;;;;;;;;4913645;29;20208;-62
2022/11/02 08:25:34;;;;;;;1.57;0.80;;;;;;;;;;4913811;29;20637;-62
2022/11/02 08:28:02;;;;;;;2.10;0.60;;;;;;;;;;4913654;29;20237;-63
2022/11/02 08:30:31;;;;;;;1.83;1.00;;;;;;;;;;4913788;29;20232;-62
2022/11/02 08:33:05;;;;;;;2.75;0.55;;;;;;;;;;4912445;29;20216;-63
2022/11/02 08:35:33;;;;;;;1.05;0.50;;;;;;;;;;4913358;29;20212;-66
2022/11/02 08:38:00;;;;;;;4.50;0.65;;;;;;;;;;4913695;29;20224;-67
2022/11/02 08:40:27;;;;;;;0.47;0.47;;;;;;;;;;4913656;29;20605;-67
2022/11/02 08:42:58;;;;;;;1.70;0.70;;;;;;;;;;4913522;29;20212;-63
2022/11/02 08:45:25;;;;;;;1.00;0.63;;;;;;;;;;4913346;29;20208;-63
2022/11/02 08:47:53;;;;;;;3.13;0.70;;;;;;;;;;4913985;29;20683;-63
2022/11/02 08:50:21;;;;;;;4.75;0.70;;;;;;;;;;4911327;29;20240;-68
2022/11/02 08:52:48;;;;;;;1.17;0.45;;;;;;;;;;4913046;29;20220;-64
2022/11/02 08:55:15;;;;;;;3.00;0.40;;;;;;;;;;4913175;29;20244;-61
2022/11/02 08:57:45;;;;;;;3.25;0.68;;;;;;;;;;4913134;29;20697;-62
2022/11/02 09:00:13;;;;;;;1.90;0.70;;;;;;;;;;4913110;29;20240;-63
2022/11/02 09:02:40;;;;;;;2.08;0.40;;;;;;;;;;4912778;29;20243;-64
2022/11/02 09:05:09;;;;;;;3.63;0.70;;;;;;;;;;4912624;29;20220;-63
2022/11/02 09:07:36;;;;;;;1.42;0.43;;;;;;;;;;4913266;29;20216;-63
2022/11/02 09:10:04;;;;;;;1.15;0.73;;;;;;;;;;4912212;29;20260;-63
2022/11/02 09:12:31;;;;;;;1.80;0.85;;;;;;;;;;4912252;29;20707;-64
2022/11/02 09:14:58;;;;;;;14.63;0.75;;;;;;;;;;4913156;29;20208;-65
2022/11/02 09:17:25;;;;;;;1.23;0.52;;;;;;;;;;4912639;29;20215;-63
2022/11/02 09:19:52;;;;;;;1.13;0.70;;;;;;;;;;4913245;29;20209;-63
2022/11/02 09:22:20;;;;;;;0.63;0.40;;;;;;;;;;4913092;29;20216;-64
2022/11/02 09:24:48;;;;;;;2.65;0.85;;;;;;;;;;4912902;29;20223;-63
2022/11/02 09:27:15;;;;;;;1.02;0.77;;;;;;;;;;4911983;29;20691;-64
2022/11/02 09:29:42;;;;;;;4.15;0.90;;;;;;;;;;4912534;29;20228;-62
2022/11/02 09:32:09;;;;;;;1.02;0.50;;;;;;;;;;4912716;29;20216;-62
2022/11/02 09:34:36;;;;;;;1.48;0.60;;;;;;;;;;4912739;29;20680;-61
2022/11/02 09:37:03;;;;;;;2.33;0.65;;;;;;;;;;4912528;29;20586;-64
2022/11/02 09:39:31;;;;;;;2.78;0.75;;;;;;;;;;4909702;29;20494;-63
2022/11/02 09:42:04;;;;;;;0.52;0.52;;;;;;;;;;4910190;29;20212;-64
2022/11/02 09:44:38;;;;;;;0.70;0.70;;;;;;;;;;4920170;29;20217;-64
2022/11/02 09:47:08;;;;;;;3.42;0.60;;;;;;;;;;4911219;29;20224;-64
2022/11/02 09:49:35;;;;;;;2.70;0.50;;;;;;;;;;4911893;29;20228;-65
2022/11/02 09:52:02;;;;;;;1.75;0.60;;;;;;;;;;4911495;29;20817;-64
2022/11/02 09:54:34;;;;;;;5.55;0.65;;;;;;;;;;4911532;29;20682;-64
2022/11/02 09:57:03;;;;;;;1.85;0.52;;;;;;;;;;4911004;29;20244;-64
2022/11/02 09:59:30;;;;;;;2.53;0.63;;;;;;;;;;4911665;29;20214;-62
2022/11/02 10:02:01;;;;;;;0.80;0.57;;;;;;;;;;4911441;29;20582;-64
2022/11/02 10:04:37;;;;;;;2.58;0.60;;;;;;;;;;4911959;29;20215;-62
2022/11/02 10:07:07;;;;;;;1.67;0.40;;;;;;;;;;4911833;29;20322;-64
2022/11/02 10:09:40;;;;;;;2.20;0.70;;;;;;;;;;4911281;29;20240;-64
2022/11/02 10:12:09;;;;;;;0.98;0.57;;;;;;;;;;4911783;29;20212;-61
2022/11/02 10:14:39;;;;;;;0.60;0.57;;;;;;;;;;4911556;29;20200;-72
2022/11/02 10:17:11;;;;;;;1.70;0.40;;;;;;;;;;4911659;29;20256;-65
2022/11/02 10:19:40;;;;;;;1.17;0.55;;;;;;;;;;4911385;29;20200;-64
2022/11/02 10:22:11;;;;;;;0.40;0.40;;;;;;;;;;4911510;29;20216;-64
2022/11/02 10:24:42;;;;;;;1.17;0.50;;;;;;;;;;4911438;29;20205;-64
2022/11/02 10:27:13;;;;;;;2.95;0.80;;;;;;;;;;4911341;29;20216;-63
2022/11/02 10:29:44;;;;;;;2.22;0.68;;;;;;;;;;4910614;29;20597;-64
2022/11/02 10:32:12;;;;;;;1.75;0.63;;;;;;;;;;4910842;29;20209;-63
2022/11/02 10:34:40;;;;;;;0.98;0.45;;;;;;;;;;4913646;29;20212;-63
2022/11/02 10:37:15;;;;;;;5.78;0.50;;;;;;;;;;4910745;29;20215;-68
2022/11/02 10:39:48;;;;;;;1.30;0.60;;;;;;;;;;4903828;29;20447;-62
2022/11/02 10:42:23;;;;;;;1.95;0.57;;;;;;;;;;4909898;29;20227;-62
2022/11/02 10:45:02;;;;;;;3.97;0.70;;;;;;;;;;4922681;29;20214;-62
2022/11/02 10:47:30;;;;;;;1.15;0.47;;;;;;;;;;4929707;29;20211;-63
2022/11/02 10:50:22;;;;;;;1.40;0.50;;;;;;;;;;4929708;29;20620;-63
2022/11/02 10:52:49;;;;;;;0.95;0.45;;;;;;;;;;4915014;29;20226;-63
2022/11/02 10:55:22;;;;;;;1.13;0.60;;;;;;;;;;4929577;29;20232;-63
2022/11/02 10:57:49;;;;;;;2.20;0.55;;;;;;;;;;4920714;29;20256;-63
2022/11/02 11:00:23;;;;;;;1.45;0.60;;;;;;;;;;4910541;29;20301;-63
2022/11/02 11:03:02;;;;;;;3.83;0.40;;;;;;;;;;4910716;29;20208;-63
2022/11/02 11:05:30;;;;;;;2.55;0.40;;;;;;;;;;4910982;29;20238;-63
2022/11/02 11:07:57;;;;;;;2.72;0.75;;;;;;;;;;4910748;29;20642;-64
2022/11/02 11:10:26;;;;;;;1.20;0.55;;;;;;;;;;4910420;29;20255;-63
2022/11/02 11:12:55;;;;;;;1.38;0.60;;;;;;;;;;4910414;29;20724;-63
2022/11/02 11:15:24;;;;;;;0.85;0.38;;;;;;;;;;4910710;29;20216;-63
2022/11/02 11:17:52;;;;;;;2.65;0.60;;;;;;;;;;4910714;29;20216;-63
2022/11/02 11:20:31;;;;;;;1.42;0.50;;;;;;;;;;4910596;29;20268;-63
2022/11/02 11:23:10;;;;;;;0.80;0.50;;;;;;;;;;4910701;29;20220;-64
2022/11/02 11:25:40;;;;;;;3.67;0.70;;;;;;;;;;4910898;29;20219;-63
2022/11/02 11:28:21;;;;;;;1.95;0.60;;;;;;;;;;4910443;29;20224;-64
2022/11/02 11:30:51;;;;;;;1.27;0.57;;;;;;;;;;4924626;29;20231;-66
2022/11/02 11:33:20;;;;;;;2.10;0.70;;;;;;;;;;4905240;29;20300;-64
2022/11/02 11:35:49;;;;;;;0.77;0.60;;;;;;;;;;4914217;29;20671;-64
2022/11/02 11:38:18;;;;;;;0.52;0.52;;;;;;;;;;4913385;29;20216;-64
2022/11/02 11:40:52;;;;;;;3.17;0.40;;;;;;;;;;4914094;29;20216;-64
2022/11/02 11:43:21;;;;;;;2.67;0.70;;;;;;;;;;4913243;29;20544;-64
2022/11/02 11:45:58;;;;;;;0.70;0.50;;;;;;;;;;4914177;29;20220;-65
2022/11/02 11:48:29;;;;;;;1.45;0.50;;;;;;;;;;4914045;29;20671;-64
2022/11/02 11:50:56;;;;;;;2.10;0.57;;;;;;;;;;4914119;29;20236;-65
2022/11/02 11:53:24;;;;;;;3.08;0.50;;;;;;;;;;4933091;29;20211;-65
2022/11/02 11:55:53;;;;;;;0.55;0.30;;;;;;;;;;4933173;29;20483;-65
2022/11/02 11:58:21;;;;;;;1.65;0.20;;;;;;;;;;4933041;29;20243;-65
2022/11/02 12:01:02;;;;;;;1.75;0.50;;;;;;;;;;4933162;29;20240;-64
2022/11/02 12:03:29;;;;;;;2.80;0.40;;;;;;;;;;4933093;29;20267;-64
2022/11/02 12:06:02;;;;;;;1.42;0.28;;;;;;;;;;4933060;29;20222;-64
2022/11/02 12:08:33;;;;;;;2.40;0.63;;;;;;;;;;4933042;29;20215;-65
2022/11/02 12:11:08;;;;;;;1.33;0.43;;;;;;;;;;4914469;29;20244;-65
2022/11/02 12:13:53;;;;;;;1.25;0.55;;;;;;;;;;4913413;29;20208;-64
2022/11/02 12:16:24;;;;;;;0.85;0.40;;;;;;;;;;4913572;29;20212;-64
2022/11/02 12:19:02;;;;;;;0.47;0.47;;;;;;;;;;4913809;29;20235;-64
2022/11/02 12:21:47;;;;;;;1.10;0.40;;;;;;;;;;4895386;29;20585;-64
2022/11/02 12:24:30;;;;;;;1.05;0.70;;;;;;;;;;4891645;29;20212;-64
2022/11/02 12:27:08;;;;;;;0.73;0.43;;;;;;;;;;4913911;29;20212;-64
2022/11/02 12:29:46;;;;;;;0.55;0.50;;;;;;;;;;4913636;29;20785;-64
2022/11/02 12:32:21;;;;;;;1.95;0.65;;;;;;;;;;4913570;29;20222;-66
2022/11/02 12:34:57;;;;;;;0.80;0.40;;;;;;;;;;4913151;29;20227;-66
2022/11/02 12:37:27;;;;;;;2.22;0.52;;;;;;;;;;4907869;29;20287;-65
2022/11/02 12:40:03;;;;;;;4.80;0.43;;;;;;;;;;4913706;29;20216;-64
2022/11/02 12:42:33;;;;;;;2.25;0.63;;;;;;;;;;4912544;29;20232;-64
2022/11/02 12:45:08;;;;;;;3.42;0.45;;;;;;;;;;4903682;29;20236;-66
2022/11/02 12:47:41;;;;;;;1.98;0.43;;;;;;;;;;4911660;29;20204;-64
2022/11/02 12:50:11;;;;;;;3.10;0.90;;;;;;;;;;4912247;29;20236;-69
2022/11/02 12:52:45;;;;;;;1.27;0.85;;;;;;;;;;4911793;29;20204;-66
2022/11/02 12:55:14;;;;;;;14.05;4.28;;;;;;;;;;4912798;29;20232;-63
2022/11/02 12:57:43;;;;;;;2.85;2.42;;;;;;;;;;4912649;29;20575;-62
2022/11/02 13:00:17;;;;;;;21.38;10.25;;;;;;;;;;4913210;29;20201;-62
2022/11/02 13:02:47;;;;;;;5.90;4.93;;;;;;;;;;4912823;29;20211;-64
2022/11/02 13:05:17;;;;;;;5.97;2.72;;;;;;;;;;4912623;29;20216;-63
2022/11/02 13:07:48;;;;;;;5.78;2.10;;;;;;;;;;4913138;29;20231;-64
2022/11/02 13:10:18;;;;;;;1.75;1.23;;;;;;;;;;4912083;29;20228;-63
2022/11/02 13:12:48;;;;;;;0.75;0.75;;;;;;;;;;4911144;29;20213;-63
2022/11/02 13:15:17;;;;;;;1.95;0.60;;;;;;;;;;4912969;29;20219;-63
2022/11/02 13:17:46;;;;;;;1.75;1.25;;;;;;;;;;4913096;29;20589;-63
2022/11/02 13:20:16;;;;;;;1.58;0.65;;;;;;;;;;4913046;29;20221;-63
2022/11/02 13:22:47;;;;;;;1.05;0.50;;;;;;;;;;4906061;29;20216;-64
2022/11/02 13:25:16;;;;;;;2.75;0.73;;;;;;;;;;4905356;29;20774;-65
2022/11/02 13:27:48;;;;;;;0.77;0.77;;;;;;;;;;4912266;29;20215;-68
2022/11/02 13:30:17;;;;;;;3.85;0.52;;;;;;;;;;4912005;29;20260;-64
2022/11/02 13:32:46;;;;;;;1.95;0.80;;;;;;;;;;4911768;29;20224;-66
2022/11/02 13:35:17;;;;;;;1.95;1.13;;;;;;;;;;4912048;29;20680;-64
2022/11/02 13:37:45;;;;;;;0.88;0.80;;;;;;;;;;4910107;29;20295;-64
2022/11/02 13:40:16;;;;;;;1.42;0.80;;;;;;;;;;4912580;29;20245;-64
2022/11/02 13:43:01;;;;;;;1.77;0.60;;;;;;;;;;4911827;29;20213;-64
2022/11/02 13:45:37;;;;;;;2.08;0.40;;;;;;;;;;4912416;29;20247;-64
2022/11/02 13:48:19;;;;;;;0.75;0.50;;;;;;;;;;4912523;29;20223;-64
2022/11/02 13:50:49;;;;;;;4.88;0.65;;;;;;;;;;4901420;29;20228;-64
2022/11/02 13:53:19;;;;;;;0.77;0.40;;;;;;;;;;4911744;29;20621;-63
2022/11/02 13:55:49;;;;;;;1.38;0.20;;;;;;;;;;4912225;29;20228;-67
2022/11/02 13:58:22;;;;;;;1.88;0.47;;;;;;;;;;4911399;29;20331;-64
2022/11/02 14:00:50;;;;;;;1.05;0.47;;;;;;;;;;4912134;29;20319;-64
2022/11/02 14:03:20;;;;;;;0.40;0.40;;;;;;;;;;4911490;29;20205;-64
2022/11/02 14:05:48;;;;;;;2.08;0.52;;;;;;;;;;4911947;29;20212;-65
2022/11/02 14:08:20;;;;;;;0.82;0.30;;;;;;;;;;4911884;29;20694;-65
2022/11/02 14:11:01;;;;;;;1.33;0.47;;;;;;;;;;4911069;29;20683;-65
2022/11/02 14:13:50;;;;;;;3.17;0.77;;;;;;;;;;4911596;29;20631;-63
2022/11/02 14:16:32;;;;;;;5.57;0.50;;;;;;;;;;4908034;29;20219;-63
2022/11/02 14:19:14;;;;;;;5.15;0.43;;;;;;;;;;4911378;29;20866;-64
2022/11/02 14:21:44;;;;;;;2.92;0.65;;;;;;;;;;4911189;29;20208;-64
2022/11/02 14:24:29;;;;;;;3.65;0.52;;;;;;;;;;4911532;29;20321;-63
2022/11/02 14:26:58;;;;;;;3.30;0.52;;;;;;;;;;4911500;29;20212;-63
2022/11/02 14:29:39;;;;;;;1.88;0.60;;;;;;;;;;4910799;29;20224;-67
2022/11/02 14:32:11;;;;;;;1.65;0.45;;;;;;;;;;4910750;29;20255;-63
2022/11/02 14:34:44;;;;;;;2.38;0.77;;;;;;;;;;4911514;29;20573;-65
2022/11/02 14:37:28;;;;;;;1.48;0.50;;;;;;;;;;4909268;29;20219;-63
2022/11/02 14:40:00;;;;;;;1.65;0.57;;;;;;;;;;4915255;29;20215;-64
2022/11/02 14:42:37;;;;;;;0.40;0.40;;;;;;;;;;4910023;29;20217;-65
2022/11/02 14:45:21;;;;;;;0.90;0.55;;;;;;;;;;4911316;29;20215;-67
2022/11/02 14:47:48;;;;;;;1.08;0.40;;;;;;;;;;4910402;29;20826;-63
2022/11/02 14:50:18;;;;;;;1.63;0.55;;;;;;;;;;4911327;29;20318;-61
2022/11/02 14:52:55;;;;;;;1.35;0.55;;;;;;;;;;4911196;29;20216;-62
2022/11/02 14:55:25;;;;;;;1.52;0.65;;;;;;;;;;4911147;29;20247;-62
2022/11/02 14:57:53;;;;;;;1.13;0.43;;;;;;;;;;4910814;29;20323;-62
2022/11/02 15:00:22;;;;;;;1.88;0.50;;;;;;;;;;4911128;29;20312;-62
2022/11/02 15:02:51;;;;;;;3.60;0.75;;;;;;;;;;4910943;29;20238;-62
2022/11/02 15:05:24;;;;;;;4.75;0.43;;;;;;;;;;4906593;29;20209;-62
2022/11/02 15:07:52;;;;;;;0.65;0.40;;;;;;;;;;4891991;29;20661;-63
2022/11/02 15:10:38;;;;;;;1.77;0.50;;;;;;;;;;4904101;29;20220;-62
2022/11/02 15:13:25;;;;;;;1.88;0.32;;;;;;;;;;4909184;29;20317;-62